Stevens Anchorage International, AK

2:40 AM AKST on December 03, 2016 (GMT -0900)
Anchorage | | Change Station

Elev 144 ft 61.17 °N, 150.03 °W | Updated 47 minutes ago

Overcast
Overcast
15 °F
Feels Like 0 °F
N
14
Wind Variable Wind from North
Gusts 22 mph

Today
High -- | Low -- °F
--% Chance of Precip.
Yesterday
High -- | Low -- °F
Precip. -- in
Pressure 29.59 in
Visibility 10.0 miles
Clouds Overcast 4200 ft
Windchill 0 °F
Dew Point 0 °F
Humidity 51%
Rainfall 0.00 in
Snow Depth Not available.
9:51 AM 3:48 PM
Waxing Crescent, 14% visible
METAR PANC 031053Z 35012G19KT 10SM OVC042 M09/M18 A2958 RMK AO2 SLP019 T10941178
Pressure 29.59 in
Visibility 10.0 miles
Clouds Overcast 4200 ft
Windchill 0 °F
Dew Point 0 °F
Humidity 51%
Rainfall 0.00 in
Snow Depth Not available.
9:51 AM 3:48 PM
Waxing Crescent, 14% visible
METAR PANC 031053Z 35012G19KT 10SM OVC042 M09/M18 A2958 RMK AO2 SLP019 T10941178

10-Day Weather Forecast

Almanac

Astronomy

Dec. 03, 2016 Rise Set
Actual Time
Civil Twilight
Nautical Twilight
Astronomical Twilight
Moon
Length of Visible Light
Length of Day
Tomorrow will be .
, % of the Moon is Illuminated

Today's Extremes

State Highs State Lows

Community

WunderPhotos

Upload Photos

1,955,431 photos uploaded!

WunderBlog® & News

Nearby

Air Quality

  Air Quality AQ Index Pollutant
Not available.

Snow Depth

Station Depth Elevation

Earthquake Activity

City Distance Mag. Time & Date
Minimum magnitude displayed is 2.5.

Coastal Water Temperatures

Place Temperature

Stations

Nearby Weather Stations

Station Location Temp. Windchill Dew Point Humidity Wind Precip. Elev Updated Type
                   

Watches & Warnings

There are currently no watches in effect.